Time;durP1;ratioP1;P1;durP2;ratioP2;P2;SDS_P1;SDS_P2;PMS_P1;PMS_P2;Temp;Humidity;BMP_temperature;BMP_pressure;BME280_temperature;BME280_humidity;BME280_pressure;Samples;Min_cycle;Max_cycle;Signal;HPM_P1;HPM_P2
2022/06/09 00:02:02;;;;;;;0.00;0.00;;;22.00;54.00;;;;;;5050508;28;20265;-73
2022/06/09 00:04:37;;;;;;;0.00;0.00;;;21.80;56.40;;;;;;5035220;28;20052;-73
2022/06/09 00:07:15;;;;;;;0.00;0.00;;;21.80;55.80;;;;;;5051465;28;20113;-73
2022/06/09 00:10:00;;;;;;;0.00;0.00;;;21.90;57.40;;;;;;5046461;28;20032;-73
2022/06/09 00:12:27;;;;;;;0.00;0.00;;;21.90;56.80;;;;;;5043342;28;20024;-74
2022/06/09 00:14:56;;;;;;;0.00;0.00;;;21.80;56.50;;;;;;5048403;28;20025;-73
2022/06/09 00:17:24;;;;;;;0.00;0.00;;;21.80;56.80;;;;;;5047416;28;20466;-75
2022/06/09 00:19:50;;;;;;;0.00;0.00;;;22.00;57.80;;;;;;5058805;28;20025;-73
2022/06/09 00:22:17;;;;;;;0.00;0.00;;;22.10;57.00;;;;;;5049063;28;20063;-74
2022/06/09 00:24:43;;;;;;;0.00;0.00;;;22.30;56.90;;;;;;5047261;28;20025;-73
2022/06/09 00:27:09;;;;;;;0.00;0.00;;;22.30;57.30;;;;;;5048416;28;20021;-74
2022/06/09 00:29:36;;;;;;;0.00;0.00;;;22.20;57.20;;;;;;5034099;28;20048;-74
2022/06/09 00:32:02;;;;;;;0.00;0.00;;;22.40;56.10;;;;;;5036878;28;20375;-73
2022/06/09 00:34:34;;;;;;;0.00;0.00;;;22.30;56.20;;;;;;5054707;28;20070;-73
2022/06/09 00:37:00;;;;;;;0.00;0.00;;;22.40;57.40;;;;;;5048861;28;20021;-74
2022/06/09 00:39:26;;;;;;;0.00;0.00;;;22.60;56.80;;;;;;5049112;28;20356;-73
2022/06/09 00:41:53;;;;;;;0.00;0.00;;;22.90;56.40;;;;;;5048286;28;20123;-73
2022/06/09 00:44:25;;;;;;;0.00;0.00;;;23.10;56.30;;;;;;5049699;28;20040;-73
2022/06/09 00:47:23;;;;;;;0.00;0.00;;;23.30;55.10;;;;;;5048871;28;20379;-73
2022/06/09 00:50:03;;;;;;;0.00;0.00;;;23.40;54.70;;;;;;5040186;28;20045;-74
2022/06/09 00:52:41;;;;;;;0.00;0.00;;;23.50;55.60;;;;;;5048626;28;20021;-73
2022/06/09 00:55:12;;;;;;;0.22;0.22;;;23.30;56.40;;;;;;5032586;28;20413;-74
2022/06/09 00:57:45;;;;;;;0.00;0.00;;;23.60;54.90;;;;;;5052206;28;20498;-73
2022/06/09 01:00:21;;;;;;;0.00;0.00;;;23.40;54.90;;;;;;5056298;28;20030;-73
2022/06/09 01:02:49;;;;;;;0.00;0.00;;;23.20;54.70;;;;;;5051274;28;20104;-73
2022/06/09 01:05:21;;;;;;;0.00;0.00;;;23.40;55.30;;;;;;5068564;28;20031;-75
2022/06/09 01:07:53;;;;;;;0.00;0.00;;;23.60;55.00;;;;;;5057107;28;20025;-73
2022/06/09 01:10:19;;;;;;;0.00;0.00;;;23.60;56.80;;;;;;5057913;28;20402;-73
2022/06/09 01:12:47;;;;;;;0.15;0.15;;;23.70;56.60;;;;;;5062880;28;20017;-75
2022/06/09 01:15:19;;;;;;;0.00;0.00;;;23.80;56.70;;;;;;5061410;28;20328;-75
2022/06/09 01:17:57;;;;;;;0.32;0.32;;;24.10;57.30;;;;;;5069840;28;20017;-74
2022/06/09 01:20:23;;;;;;;0.00;0.00;;;24.60;55.00;;;;;;5054170;28;20699;-75
2022/06/09 01:23:10;;;;;;;0.00;0.00;;;24.30;55.00;;;;;;5039017;28;20032;-75
2022/06/09 01:25:57;;;;;;;1.77;1.77;;;24.50;57.20;;;;;;5031289;28;20049;-75
2022/06/09 01:29:09;;;;;;;0.00;0.00;;;24.60;56.30;;;;;;5057066;28;20025;-75
2022/06/09 01:32:02;;;;;;;0.00;0.00;;;25.10;56.20;;;;;;5052402;28;20041;-75
2022/06/09 01:34:37;;;;;;;0.00;0.00;;;25.50;55.30;;;;;;5058598;28;20040;-75
2022/06/09 01:37:18;;;;;;;0.00;0.00;;;25.40;56.90;;;;;;5063772;28;20021;-75
2022/06/09 01:39:49;;;;;;;0.85;0.85;;;26.30;54.10;;;;;;5061657;28;20470;-75
2022/06/09 01:42:43;;;;;;;0.00;0.00;;;27.00;51.00;;;;;;5062648;28;20048;-75
2022/06/09 01:45:20;;;;;;;0.00;0.00;;;28.00;50.60;;;;;;5055623;28;20460;-75
2022/06/09 01:47:58;;;;;;;0.00;0.00;;;28.70;47.60;;;;;;5050975;28;20035;-75
2022/06/09 01:50:45;;;;;;;0.00;0.00;;;29.60;47.60;;;;;;5045253;28;20072;-73
2022/06/09 01:53:19;;;;;;;0.00;0.00;;;30.70;45.10;;;;;;5060287;28;20387;-75
2022/06/09 01:55:51;;;;;;;0.00;0.00;;;31.20;45.80;;;;;;5052417;28;20025;-76
2022/06/09 01:58:22;;;;;;;0.00;0.00;;;32.10;45.40;;;;;;5054589;28;20048;-75
2022/06/09 02:00:52;;;;;;;0.10;0.10;;;33.00;43.30;;;;;;5054374;28;20468;-75
2022/06/09 02:03:34;;;;;;;0.00;0.00;;;33.70;42.40;;;;;;5056311;28;20625;-75
2022/06/09 02:06:04;;;;;;;0.08;0.08;;;33.50;40.90;;;;;;5064296;28;20025;-75
2022/06/09 02:08:30;;;;;;;11.02;3.00;;;33.00;42.80;;;;;;5065167;28;20104;-75
2022/06/09 02:11:00;;;;;;;0.35;0.35;;;31.80;42.30;;;;;;5064045;28;20036;-75
2022/06/09 02:13:30;;;;;;;0.47;0.47;;;30.90;42.60;;;;;;5055519;28;20119;-75
2022/06/09 02:16:01;;;;;;;1.25;1.25;;;29.90;44.60;;;;;;5049746;28;20072;-75
2022/06/09 02:18:30;;;;;;;7.30;6.97;;;29.20;45.90;;;;;;5054424;28;20021;-74
2022/06/09 02:21:09;;;;;;;0.00;0.00;;;28.90;46.70;;;;;;5060755;28;20036;-75
2022/06/09 02:23:36;;;;;;;0.22;0.22;;;28.80;48.10;;;;;;5052197;28;20060;-75
2022/06/09 02:26:04;;;;;;;0.05;0.05;;;28.60;47.70;;;;;;5049967;28;20028;-76
2022/06/09 02:28:30;;;;;;;0.43;0.43;;;28.70;50.00;;;;;;5033660;28;20028;-75
2022/06/09 02:30:57;;;;;;;0.25;0.25;;;28.80;48.40;;;;;;5049281;28;20145;-75
2022/06/09 02:33:23;;;;;;;0.10;0.10;;;28.80;47.90;;;;;;5030987;28;20021;-75
2022/06/09 02:35:50;;;;;;;0.73;0.73;;;29.30;46.40;;;;;;5048340;28;20374;-75
2022/06/09 02:38:18;;;;;;;3.47;2.80;;;29.60;44.90;;;;;;5025872;28;20302;-75
2022/06/09 02:40:44;;;;;;;0.38;0.38;;;29.60;46.10;;;;;;5055020;28;20053;-74
2022/06/09 02:43:10;;;;;;;1.52;1.42;;;29.50;44.70;;;;;;5042963;28;20358;-75
2022/06/09 02:45:36;;;;;;;0.00;0.00;;;29.70;44.80;;;;;;5030848;28;20036;-74
2022/06/09 02:48:03;;;;;;;0.47;0.47;;;30.40;44.80;;;;;;5044881;28;20033;-75
2022/06/09 02:50:30;;;;;;;0.43;0.43;;;31.30;45.20;;;;;;5047533;28;20071;-75
2022/06/09 02:52:56;;;;;;;2.75;1.70;;;32.30;43.70;;;;;;5041906;28;20502;-76
2022/06/09 02:55:22;;;;;;;4.35;2.05;;;32.90;41.50;;;;;;5039792;28;20029;-75
2022/06/09 02:57:48;;;;;;;0.00;0.00;;;33.10;40.00;;;;;;5047005;28;20035;-75
2022/06/09 03:00:15;;;;;;;0.52;0.52;;;33.10;40.90;;;;;;5041323;28;20029;-75
2022/06/09 03:02:59;;;;;;;5.88;1.63;;;32.60;41.40;;;;;;5043376;28;20053;-75
2022/06/09 03:05:27;;;;;;;0.70;0.70;;;33.10;40.70;;;;;;5050486;28;20064;-76
2022/06/09 03:07:53;;;;;;;1.13;0.98;;;32.70;39.60;;;;;;5046700;28;20514;-75
2022/06/09 03:10:19;;;;;;;4.03;0.20;;;32.40;38.50;;;;;;5043248;28;20036;-74
2022/06/09 03:12:45;;;;;;;0.00;0.00;;;32.10;39.40;;;;;;5027948;28;21738;-73
2022/06/09 03:15:13;;;;;;;0.17;0.17;;;32.40;40.10;;;;;;5049526;28;20062;-73
2022/06/09 03:17:39;;;;;;;0.85;0.80;;;32.20;39.20;;;;;;5026981;28;20586;-76
2022/06/09 03:20:09;;;;;;;1.35;1.17;;;32.30;39.40;;;;;;5039114;28;20303;-73
2022/06/09 03:22:35;;;;;;;0.25;0.25;;;32.50;39.10;;;;;;5040410;28;20017;-75
2022/06/09 03:25:02;;;;;;;0.20;0.20;;;32.40;40.60;;;;;;5019898;28;20033;-73
2022/06/09 03:27:28;;;;;;;0.57;0.57;;;32.20;40.80;;;;;;5038329;28;20029;-73
2022/06/09 03:29:54;;;;;;;0.20;0.15;;;32.80;42.00;;;;;;5024126;28;20071;-74
2022/06/09 03:32:22;;;;;;;3.08;0.88;;;32.60;39.70;;;;;;5036368;28;20036;-75
2022/06/09 03:34:48;;;;;;;0.30;0.22;;;32.60;39.20;;;;;;5041544;28;20040;-75
2022/06/09 03:37:15;;;;;;;1.15;1.00;;;32.20;39.10;;;;;;5049901;28;20478;-74
2022/06/09 03:39:41;;;;;;;1.52;1.45;;;32.00;39.90;;;;;;5044822;28;20939;-74
2022/06/09 03:42:07;;;;;;;7.22;5.57;;;31.80;41.00;;;;;;5047386;28;20080;-76
2022/06/09 03:44:33;;;;;;;0.47;0.47;;;32.00;41.30;;;;;;5050882;28;20033;-74
2022/06/09 03:47:00;;;;;;;0.00;0.00;;;32.20;41.80;;;;;;5049882;28;20055;-74
2022/06/09 03:49:26;;;;;;;0.20;0.20;;;32.50;41.90;;;;;;5046433;28;20495;-75
2022/06/09 03:51:52;;;;;;;0.32;0.32;;;32.60;40.50;;;;;;5045821;28;20021;-75
2022/06/09 03:54:21;;;;;;;0.80;0.80;;;32.60;39.60;;;;;;5040566;28;20133;-75
2022/06/09 03:56:48;;;;;;;2.00;1.27;;;32.50;38.70;;;;;;5044352;28;20459;-75
2022/06/09 03:59:14;;;;;;;1.33;1.13;;;31.80;39.90;;;;;;5047052;28;20033;-75
2022/06/09 04:01:40;;;;;;;1.67;1.58;;;31.40;40.70;;;;;;5042677;28;20063;-76
2022/06/09 04:04:06;;;;;;;0.30;0.22;;;30.90;42.00;;;;;;5048498;28;20037;-85
2022/06/09 04:06:34;;;;;;;0.00;0.00;;;31.10;42.30;;;;;;5045162;28;20139;-83
2022/06/09 04:09:00;;;;;;;0.17;0.17;;;31.40;41.70;;;;;;5044435;28;20028;-83
2022/06/09 04:11:27;;;;;;;0.00;0.00;;;31.80;39.80;;;;;;5041526;28;20040;-87
2022/06/09 04:13:53;;;;;;;0.40;0.40;;;31.90;41.30;;;;;;5058922;28;20029;-76
2022/06/09 04:16:29;;;;;;;0.05;0.05;;;32.00;41.10;;;;;;5065979;28;20411;-82
2022/06/09 04:19:01;;;;;;;1.45;0.35;;;31.90;41.60;;;;;;5058551;28;20049;-87
2022/06/09 04:21:30;;;;;;;1.58;0.82;;;31.80;40.60;;;;;;5049108;28;20335;-82
2022/06/09 04:23:57;;;;;;;0.43;0.43;;;31.70;41.10;;;;;;5043061;28;20029;-83
2022/06/09 04:26:26;;;;;;;0.20;0.15;;;31.60;41.20;;;;;;5039097;28;20021;-77
2022/06/09 04:28:53;;;;;;;0.13;0.13;;;31.40;40.60;;;;;;5050159;28;20037;-80
2022/06/09 04:31:19;;;;;;;0.13;0.10;;;31.50;37.50;;;;;;5021476;28;20413;-85
2022/06/09 04:33:46;;;;;;;2.75;1.58;;;31.30;38.90;;;;;;5020478;28;20022;-84
2022/06/09 04:36:13;;;;;;;1.95;1.45;;;31.40;38.80;;;;;;5005468;28;20133;-83
2022/06/09 04:38:39;;;;;;;2.72;0.38;;;31.20;39.00;;;;;;5021287;28;20026;-81
2022/06/09 04:41:11;;;;;;;2.22;1.08;;;31.30;38.00;;;;;;5031022;28;20034;-80
2022/06/09 04:43:42;;;;;;;0.65;0.65;;;31.50;36.40;;;;;;5024879;28;20032;-85
2022/06/09 04:46:11;;;;;;;0.50;0.25;;;31.40;35.70;;;;;;5028094;28;20049;-84
2022/06/09 04:48:37;;;;;;;0.73;0.30;;;31.40;36.00;;;;;;5015518;28;20029;-83
2022/06/09 04:51:12;;;;;;;0.90;0.75;;;31.30;36.10;;;;;;5028652;28;20444;-88
2022/06/09 04:53:41;;;;;;;0.05;0.05;;;31.30;37.80;;;;;;5027002;28;20036;-80
2022/06/09 04:56:07;;;;;;;1.45;0.98;;;31.60;36.50;;;;;;5047714;28;20032;-87
2022/06/09 04:58:33;;;;;;;0.47;0.10;;;31.40;37.90;;;;;;5025126;28;20055;-87
2022/06/09 05:00:59;;;;;;;0.00;0.00;;;31.60;37.40;;;;;;5035135;28;20308;-82
2022/06/09 05:03:25;;;;;;;0.50;0.50;;;31.80;37.50;;;;;;5047640;28;20025;-83
2022/06/09 05:05:51;;;;;;;0.30;0.22;;;31.90;36.50;;;;;;5044445;28;20034;-87
2022/06/09 05:08:18;;;;;;;0.00;0.00;;;31.80;35.50;;;;;;5038291;28;20558;-83
2022/06/09 05:10:46;;;;;;;0.05;0.05;;;31.90;35.80;;;;;;5030938;28;20052;-76
2022/06/09 05:13:14;;;;;;;2.70;2.22;;;31.90;36.30;;;;;;5053686;28;20078;-74
2022/06/09 05:15:52;;;;;;;3.72;0.75;;;32.00;34.60;;;;;;5056249;28;20022;-75
2022/06/09 05:18:20;;;;;;;1.35;0.63;;;31.60;34.70;;;;;;5048448;28;20112;-82
2022/06/09 05:20:46;;;;;;;0.13;0.10;;;31.50;35.20;;;;;;5034844;28;20363;-85
2022/06/09 05:23:12;;;;;;;0.40;0.30;;;31.60;35.10;;;;;;5031599;28;20468;-81
2022/06/09 05:25:46;;;;;;;0.38;0.38;;;31.80;34.70;;;;;;5027083;28;20479;-81
2022/06/09 05:28:12;;;;;;;0.03;0.03;;;31.90;33.80;;;;;;5027328;28;20080;-82
2022/06/09 05:30:38;;;;;;;0.00;0.00;;;31.80;34.30;;;;;;5022655;28;20029;-83
2022/06/09 05:33:04;;;;;;;0.73;0.35;;;32.00;33.90;;;;;;5022191;28;20021;-75
2022/06/09 05:35:30;;;;;;;0.30;0.30;;;32.00;34.40;;;;;;5031711;28;20029;-81
2022/06/09 05:46:15;;;;;;;0.55;0.52;;;32.10;34.70;;;;;;5026626;28;20048;-74
2022/06/09 05:48:42;;;;;;;0.00;0.00;;;32.20;32.60;;;;;;5026152;28;20596;-74
2022/06/09 05:51:09;;;;;;;2.22;1.20;;;31.80;34.20;;;;;;5023818;28;20026;-74
2022/06/09 05:53:36;;;;;;;0.25;0.25;;;32.10;33.50;;;;;;5027924;28;20053;-75
2022/06/09 05:56:04;;;;;;;0.50;0.50;;;32.00;33.60;;;;;;5022295;28;20451;-74
2022/06/09 05:58:30;;;;;;;0.55;0.50;;;32.10;33.40;;;;;;5027073;28;20079;-74
2022/06/09 06:00:56;;;;;;;0.75;0.47;;;32.20;34.50;;;;;;5033141;28;20042;-74
2022/06/09 06:03:22;;;;;;;0.00;0.00;;;32.20;35.20;;;;;;5029256;28;20064;-74
2022/06/09 06:08:33;;;;;;;0.47;0.47;;;32.00;35.30;;;;;;5025354;28;20039;-75
2022/06/09 06:10:59;;;;;;;1.08;1.08;;;32.20;33.60;;;;;;5024525;28;20407;-74
2022/06/09 06:13:25;;;;;;;0.00;0.00;;;32.50;32.20;;;;;;5025938;28;20026;-75
2022/06/09 06:15:52;;;;;;;0.55;0.52;;;32.60;33.90;;;;;;5034352;28;20069;-75
2022/06/09 06:18:18;;;;;;;1.45;0.57;;;32.50;34.50;;;;;;5019363;28;20026;-74
2022/06/09 06:20:44;;;;;;;0.30;0.30;;;32.40;34.60;;;;;;5018249;28;20025;-74
2022/06/09 06:23:10;;;;;;;0.10;0.10;;;32.60;32.50;;;;;;5020882;28;20036;-74
2022/06/09 06:25:36;;;;;;;0.15;0.15;;;32.40;32.90;;;;;;5017484;28;20029;-74
2022/06/09 06:28:02;;;;;;;0.05;0.05;;;32.30;33.30;;;;;;5027581;28;20043;-74
2022/06/09 06:30:28;;;;;;;0.00;0.00;;;32.40;32.80;;;;;;5021975;28;20029;-73
2022/06/09 06:32:55;;;;;;;1.45;0.85;;;32.40;33.60;;;;;;5025406;28;20022;-74
2022/06/09 06:35:21;;;;;;;0.70;0.38;;;32.60;34.80;;;;;;5022111;28;20055;-74
2022/06/09 06:37:47;;;;;;;0.00;0.00;;;32.60;33.10;;;;;;5018114;28;20447;-74
2022/06/09 06:40:15;;;;;;;1.30;1.27;;;32.60;33.20;;;;;;5017178;28;20112;-74
2022/06/09 06:42:42;;;;;;;3.45;0.82;;;32.40;34.10;;;;;;5020140;28;20022;-74
2022/06/09 06:45:12;;;;;;;0.00;0.00;;;32.80;32.80;;;;;;5030518;28;20025;-74
2022/06/09 06:47:41;;;;;;;0.10;0.10;;;32.70;31.40;;;;;;5028598;28;20037;-74
2022/06/09 06:50:09;;;;;;;0.75;0.40;;;32.60;31.70;;;;;;5026353;28;20059;-75
2022/06/09 06:52:35;;;;;;;0.90;0.35;;;32.30;31.60;;;;;;5022978;28;20532;-75
2022/06/09 06:55:04;;;;;;;8.38;0.90;;;32.20;32.50;;;;;;5017533;28;20170;-74
2022/06/09 06:57:30;;;;;;;0.00;0.00;;;32.10;32.50;;;;;;5028236;28;20017;-76
2022/06/09 07:12:47;;;;;;;0.00;0.00;;;32.20;31.30;;;;;;5075199;28;20488;-73
2022/06/09 07:15:14;;;;;;;0.00;0.00;;;32.50;31.70;;;;;;5065549;28;20263;-74
2022/06/09 07:17:40;;;;;;;0.10;0.10;;;33.10;31.40;;;;;;5065264;28;20025;-75
2022/06/09 07:20:10;;;;;;;0.10;0.10;;;32.90;31.40;;;;;;5061520;28;20348;-74
2022/06/09 07:22:36;;;;;;;0.00;0.00;;;32.90;31.70;;;;;;5057402;28;20021;-75
2022/06/09 07:25:03;;;;;;;0.43;0.43;;;33.10;32.10;;;;;;5061674;28;20028;-75
2022/06/09 07:27:30;;;;;;;0.00;0.00;;;33.00;31.20;;;;;;5063125;28;20033;-75
2022/06/09 07:29:56;;;;;;;0.00;0.00;;;33.00;31.30;;;;;;5057679;28;20347;-74
2022/06/09 07:32:22;;;;;;;0.55;0.55;;;32.40;30.00;;;;;;5063502;28;20029;-74
2022/06/09 07:34:49;;;;;;;0.32;0.20;;;32.60;30.80;;;;;;5068993;28;20027;-75
2022/06/09 07:37:16;;;;;;;0.00;0.00;;;32.90;30.00;;;;;;5061718;28;20640;-75
2022/06/09 07:39:42;;;;;;;1.02;0.80;;;32.90;30.60;;;;;;5068748;28;20044;-75
2022/06/09 07:42:09;;;;;;;0.00;0.00;;;32.80;30.00;;;;;;5061574;28;20294;-75
2022/06/09 07:44:36;;;;;;;2.58;1.65;;;32.70;31.20;;;;;;5059438;28;20029;-74
2022/06/09 07:47:02;;;;;;;1.35;1.33;;;33.20;30.30;;;;;;5056200;28;20037;-75
2022/06/09 07:49:28;;;;;;;0.60;0.60;;;33.50;29.60;;;;;;5067602;28;20021;-73
2022/06/09 07:51:54;;;;;;;0.20;0.20;;;33.70;29.90;;;;;;5060814;28;20139;-76
2022/06/09 07:54:20;;;;;;;25.02;2.20;;;33.30;30.10;;;;;;5056468;28;20033;-74
2022/06/09 07:56:46;;;;;;;0.00;0.00;;;33.10;30.00;;;;;;5056045;28;20600;-74
2022/06/09 07:59:12;;;;;;;0.00;0.00;;;33.10;31.30;;;;;;5057193;28;20169;-74
2022/06/09 08:01:38;;;;;;;1.95;0.55;;;33.60;30.00;;;;;;5058736;28;20025;-74
2022/06/09 08:04:05;;;;;;;23.85;4.68;;;33.40;30.00;;;;;;5059203;28;20111;-74
2022/06/09 08:06:31;;;;;;;0.00;0.00;;;33.20;30.30;;;;;;5055740;28;20025;-75
2022/06/09 08:09:01;;;;;;;0.43;0.43;;;33.20;30.50;;;;;;5054715;28;20021;-75
2022/06/09 08:11:30;;;;;;;0.00;0.00;;;33.60;28.70;;;;;;5049816;28;20801;-75
2022/06/09 08:13:58;;;;;;;0.00;0.00;;;33.70;28.80;;;;;;5044671;28;20537;-74
2022/06/09 08:16:25;;;;;;;0.00;0.00;;;33.60;29.50;;;;;;5047750;28;20605;-75
2022/06/09 08:18:51;;;;;;;1.23;1.13;;;33.30;29.60;;;;;;5047798;28;20158;-74
2022/06/09 08:21:17;;;;;;;1.25;0.70;;;33.60;28.60;;;;;;5045384;28;20545;-74
2022/06/09 08:23:45;;;;;;;0.28;0.28;;;33.50;29.40;;;;;;5048204;28;20083;-75
2022/06/09 08:26:11;;;;;;;2.15;0.52;;;33.60;28.80;;;;;;5044521;28;20017;-74
2022/06/09 08:28:37;;;;;;;1.45;0.22;;;33.80;29.40;;;;;;5042203;28;20529;-74
2022/06/09 08:31:03;;;;;;;1.45;0.55;;;33.60;28.60;;;;;;5048208;28;20059;-74
2022/06/09 08:33:29;;;;;;;0.10;0.10;;;33.70;28.60;;;;;;5042462;28;21332;-74
2022/06/09 08:35:59;;;;;;;0.00;0.00;;;34.00;28.40;;;;;;5053890;28;20039;-74
2022/06/09 08:38:25;;;;;;;0.00;0.00;;;34.00;28.40;;;;;;5048134;28;20029;-73
2022/06/09 08:41:00;;;;;;;0.00;0.00;;;33.90;28.50;;;;;;5043717;28;20352;-75
2022/06/09 08:43:53;;;;;;;0.47;0.28;;;34.00;29.00;;;;;;5046769;28;20044;-75
2022/06/09 08:46:24;;;;;;;0.00;0.00;;;34.00;27.90;;;;;;5044059;28;20408;-74
2022/06/09 08:48:55;;;;;;;0.00;0.00;;;33.60;28.90;;;;;;5045072;28;20280;-74
2022/06/09 08:51:40;;;;;;;0.75;0.75;;;33.40;29.70;;;;;;5040733;28;20201;-75
2022/06/09 08:54:34;;;;;;;6.03;0.70;;;33.30;29.40;;;;;;5045887;28;20029;-74
2022/06/09 08:57:04;;;;;;;0.00;0.00;;;33.20;28.50;;;;;;5047470;28;20041;-75
2022/06/09 08:59:37;;;;;;;0.00;0.00;;;32.90;29.30;;;;;;5045363;28;20029;-75
2022/06/09 09:02:19;;;;;;;0.00;0.00;;;32.90;29.40;;;;;;5076099;28;20557;-73
2022/06/09 09:04:50;;;;;;;0.00;0.00;;;32.70;29.50;;;;;;5044847;28;20509;-74
2022/06/09 09:07:26;;;;;;;0.00;0.00;;;32.70;30.60;;;;;;5047783;28;20611;-75
2022/06/09 09:09:58;;;;;;;0.00;0.00;;;32.90;30.20;;;;;;5041172;28;20391;-74
2022/06/09 09:12:30;;;;;;;0.00;0.00;;;33.10;30.50;;;;;;5047112;28;20087;-74
2022/06/09 09:15:05;;;;;;;0.00;0.00;;;33.00;29.40;;;;;;5049319;28;20450;-75
2022/06/09 09:17:54;;;;;;;2.60;2.40;;;32.90;33.30;;;;;;5050739;28;20033;-74
2022/06/09 09:20:26;;;;;;;7.78;7.13;;;33.40;29.70;;;;;;5044393;28;20033;-75
2022/06/09 09:23:15;;;;;;;0.30;0.30;;;33.00;30.10;;;;;;5045903;28;20032;-75
2022/06/09 09:25:57;;;;;;;0.00;0.00;;;33.00;29.40;;;;;;5049598;28;20502;-76
2022/06/09 09:28:54;;;;;;;0.00;0.00;;;33.00;29.70;;;;;;5042463;28;20350;-75
2022/06/09 09:31:34;;;;;;;22.27;8.60;;;33.00;31.70;;;;;;5043048;28;20521;-75
2022/06/09 09:34:03;;;;;;;0.00;0.00;;;32.80;31.60;;;;;;5043951;28;20032;-75
2022/06/09 09:36:39;;;;;;;0.00;0.00;;;32.80;29.80;;;;;;5051768;28;20037;-73
2022/06/09 09:39:18;;;;;;;0.00;0.00;;;32.90;29.90;;;;;;5045035;28;20040;-73
2022/06/09 09:41:45;;;;;;;0.00;0.00;;;33.00;28.80;;;;;;5040479;28;20021;-75
2022/06/09 09:44:18;;;;;;;0.00;0.00;;;33.40;28.50;;;;;;5046259;28;20021;-74
2022/06/09 09:47:01;;;;;;;0.32;0.32;;;33.40;29.60;;;;;;5041417;28;20363;-73
2022/06/09 09:49:29;;;;;;;0.00;0.00;;;33.60;29.50;;;;;;5047222;28;20475;-74
2022/06/09 09:51:57;;;;;;;0.00;0.00;;;33.20;30.00;;;;;;5044691;28;20044;-74
2022/06/09 09:54:36;;;;;;;0.17;0.17;;;33.30;30.10;;;;;;5048231;28;20025;-73
2022/06/09 09:57:16;;;;;;;0.00;0.00;;;33.70;29.50;;;;;;5049578;28;20043;-74
2022/06/09 09:59:52;;;;;;;0.00;0.00;;;33.80;30.90;;;;;;5047850;28;20029;-73
2022/06/09 10:08:38;;;;;;;0.98;0.93;;;34.20;29.30;;;;;;5049241;28;20035;-74
2022/06/09 10:14:06;;;;;;;1.13;0.98;;;34.10;28.90;;;;;;5044425;28;20060;-73
2022/06/09 10:16:33;;;;;;;0.10;0.10;;;33.80;29.00;;;;;;5047509;28;20459;-73
2022/06/09 10:19:03;;;;;;;0.20;0.20;;;33.60;29.20;;;;;;5044244;28;20541;-73
2022/06/09 10:21:49;;;;;;;0.00;0.00;;;33.70;29.10;;;;;;5045606;28;20044;-74
2022/06/09 10:24:19;;;;;;;0.43;0.43;;;33.70;29.50;;;;;;5039471;28;20542;-75
2022/06/09 10:26:48;;;;;;;0.47;0.47;;;33.90;29.10;;;;;;5040560;28;20055;-73
2022/06/09 10:29:21;;;;;;;0.00;0.00;;;34.00;28.70;;;;;;5040580;28;20021;-74
2022/06/09 10:31:58;;;;;;;0.73;0.73;;;33.90;29.40;;;;;;5042568;28;20102;-75
2022/06/09 10:34:46;;;;;;;0.00;0.00;;;33.80;29.20;;;;;;5040759;28;20120;-74
2022/06/09 10:38:04;;;;;;;0.25;0.22;;;33.90;28.70;;;;;;5035503;28;20104;-74
2022/06/09 10:40:54;;;;;;;0.00;0.00;;;34.10;29.60;;;;;;5040874;28;20037;-73
2022/06/09 10:43:47;;;;;;;23.23;2.92;;;33.60;28.30;;;;;;5039519;28;20036;-73
2022/06/09 10:46:28;;;;;;;0.17;0.13;;;33.60;29.10;;;;;;5041247;28;20029;-73
2022/06/09 10:55:14;;;;;;;0.00;0.00;;;33.50;28.40;;;;;;5041408;28;20402;-74
2022/06/09 10:58:21;;;;;;;0.32;0.32;;;33.40;28.70;;;;;;5046361;28;20030;-71
2022/06/09 11:00:49;;;;;;;0.10;0.10;;;33.50;28.50;;;;;;5026313;28;20036;-74
2022/06/09 11:03:26;;;;;;;0.00;0.00;;;33.60;28.00;;;;;;5043981;28;20033;-74
2022/06/09 11:06:04;;;;;;;0.00;0.00;;;33.60;27.20;;;;;;5046648;28;20399;-74
2022/06/09 11:09:05;;;;;;;0.13;0.10;;;33.60;27.80;;;;;;5046831;28;20061;-73
2022/06/09 11:11:44;;;;;;;0.38;0.38;;;33.50;28.90;;;;;;5045122;28;20087;-73
2022/06/09 11:14:22;;;;;;;14.73;5.20;;;33.60;28.60;;;;;;5044514;28;20037;-73
2022/06/09 11:17:23;;;;;;;1.08;1.08;;;33.80;28.30;;;;;;5048548;28;20494;-72
2022/06/09 11:19:57;;;;;;;0.00;0.00;;;33.70;28.80;;;;;;5047025;28;20032;-73
2022/06/09 11:22:35;;;;;;;0.00;0.00;;;33.60;28.50;;;;;;5047652;28;20032;-72
2022/06/09 11:25:28;;;;;;;0.00;0.00;;;33.70;28.30;;;;;;5046947;28;20013;-73
2022/06/09 11:28:09;;;;;;;0.00;0.00;;;33.30;28.80;;;;;;5044314;28;20021;-72
2022/06/09 11:30:41;;;;;;;0.00;0.00;;;33.00;29.70;;;;;;5047339;28;20029;-73
2022/06/09 11:33:17;;;;;;;0.00;0.00;;;33.10;29.20;;;;;;5043627;28;20148;-73
2022/06/09 11:35:50;;;;;;;0.00;0.00;;;33.30;29.10;;;;;;5045180;28;20029;-73
2022/06/09 11:38:38;;;;;;;0.60;0.25;;;33.50;29.50;;;;;;5042983;28;20426;-74
2022/06/09 11:41:25;;;;;;;0.00;0.00;;;33.50;28.90;;;;;;5042838;28;20025;-74
2022/06/09 11:44:04;;;;;;;0.00;0.00;;;33.20;29.90;;;;;;5045950;28;20017;-74
2022/06/09 11:46:34;;;;;;;0.00;0.00;;;33.10;30.20;;;;;;5051768;28;20357;-75
2022/06/09 11:49:04;;;;;;;0.20;0.20;;;33.30;29.70;;;;;;5052456;28;20387;-73
2022/06/09 11:51:33;;;;;;;0.73;0.73;;;33.40;29.40;;;;;;5050247;28;21565;-74
2022/06/09 11:54:02;;;;;;;0.00;0.00;;;33.50;29.50;;;;;;5049429;28;20025;-74
2022/06/09 11:56:33;;;;;;;0.63;0.57;;;33.60;29.10;;;;;;5047486;28;20029;-74
2022/06/09 11:59:39;;;;;;;0.00;0.00;;;33.40;30.30;;;;;;5049827;28;20102;-74
2022/06/09 12:02:20;;;;;;;0.00;0.00;;;33.30;30.30;;;;;;5049304;28;20049;-74
2022/06/09 12:04:49;;;;;;;0.00;0.00;;;33.40;29.70;;;;;;5044292;28;20039;-75
2022/06/09 12:07:32;;;;;;;0.00;0.00;;;33.10;30.70;;;;;;5045400;28;20036;-74
2022/06/09 12:10:22;;;;;;;0.03;0.03;;;33.30;29.90;;;;;;5050001;28;20025;-74
2022/06/09 12:13:12;;;;;;;0.00;0.00;;;33.30;28.40;;;;;;5047151;28;20396;-74
2022/06/09 12:16:00;;;;;;;0.00;0.00;;;33.30;28.90;;;;;;5045866;28;20048;-75
2022/06/09 12:18:34;;;;;;;0.00;0.00;;;33.40;28.80;;;;;;5043447;28;20115;-73
2022/06/09 12:21:06;;;;;;;0.00;0.00;;;33.10;29.80;;;;;;5046946;28;20028;-73
2022/06/09 12:23:41;;;;;;;0.00;0.00;;;32.70;31.60;;;;;;5047279;28;20028;-73
2022/06/09 12:26:10;;;;;;;0.20;0.20;;;32.80;29.80;;;;;;5049098;28;20025;-73
2022/06/09 12:28:48;;;;;;;0.00;0.00;;;32.70;31.00;;;;;;5045188;28;20460;-72
2022/06/09 12:31:21;;;;;;;0.00;0.00;;;32.80;31.20;;;;;;5047383;28;20105;-73
2022/06/09 12:34:00;;;;;;;0.00;0.00;;;32.80;32.00;;;;;;5053582;28;20070;-72
2022/06/09 12:36:32;;;;;;;0.00;0.00;;;32.40;32.70;;;;;;5050255;28;20502;-72
2022/06/09 12:39:00;;;;;;;0.47;0.35;;;32.30;30.50;;;;;;5052968;28;20087;-73
2022/06/09 12:41:39;;;;;;;0.00;0.00;;;32.40;30.70;;;;;;5048472;28;20916;-74
2022/06/09 12:44:19;;;;;;;4.65;4.40;;;32.30;31.10;;;;;;5050110;28;20025;-74
2022/06/09 12:47:15;;;;;;;0.00;0.00;;;32.10;30.80;;;;;;5054299;28;20132;-73
2022/06/09 12:49:44;;;;;;;0.00;0.00;;;32.10;30.70;;;;;;5045814;28;20052;-74
2022/06/09 12:52:26;;;;;;;0.00;0.00;;;32.40;30.80;;;;;;5054770;28;20416;-74
2022/06/09 12:55:02;;;;;;;0.00;0.00;;;32.40;31.50;;;;;;5050423;28;20073;-74
2022/06/09 12:57:31;;;;;;;0.00;0.00;;;32.50;31.20;;;;;;5049924;28;20057;-75
2022/06/09 13:00:12;;;;;;;0.00;0.00;;;32.40;32.20;;;;;;5050246;28;20379;-75
2022/06/09 13:02:39;;;;;;;0.00;0.00;;;32.10;33.10;;;;;;5048050;28;20060;-75
2022/06/09 13:05:16;;;;;;;0.32;0.32;;;31.70;33.00;;;;;;5051150;28;20016;-75
2022/06/09 13:07:55;;;;;;;0.00;0.00;;;31.50;34.40;;;;;;5049208;28;20032;-75
2022/06/09 13:10:43;;;;;;;0.00;0.00;;;31.50;34.00;;;;;;5044382;28;20021;-75
2022/06/09 13:13:39;;;;;;;0.00;0.00;;;31.50;34.40;;;;;;5059782;28;20025;-75
2022/06/09 13:16:33;;;;;;;0.03;0.03;;;31.40;34.50;;;;;;5060109;28;20340;-75
2022/06/09 13:19:03;;;;;;;0.00;0.00;;;31.20;35.70;;;;;;5050448;28;20079;-75
2022/06/09 13:21:37;;;;;;;0.00;0.00;;;31.20;38.30;;;;;;5051416;28;20029;-75
2022/06/09 13:24:11;;;;;;;0.00;0.00;;;31.20;39.00;;;;;;5046286;28;20017;-75
2022/06/09 13:26:43;;;;;;;0.10;0.10;;;31.20;40.80;;;;;;5049995;28;20110;-75
2022/06/09 13:29:21;;;;;;;0.00;0.00;;;31.10;41.00;;;;;;5051024;28;20111;-74
2022/06/09 13:31:50;;;;;;;0.00;0.00;;;31.10;41.00;;;;;;5048278;28;20035;-75
2022/06/09 13:34:34;;;;;;;0.00;0.00;;;31.10;41.70;;;;;;5052360;28;20403;-74
2022/06/09 13:37:10;;;;;;;6.50;1.75;;;30.90;42.10;;;;;;5050797;28;20038;-73
2022/06/09 13:39:44;;;;;;;0.00;0.00;;;31.00;42.00;;;;;;5058550;28;20029;-75
2022/06/09 13:42:12;;;;;;;0.13;0.13;;;30.90;43.00;;;;;;5050146;28;20070;-75
2022/06/09 13:45:25;;;;;;;0.25;0.25;;;30.70;43.40;;;;;;5050944;28;20021;-75
2022/06/09 13:48:12;;;;;;;0.00;0.00;;;30.80;43.90;;;;;;5051019;28;20111;-75
2022/06/09 13:50:46;;;;;;;0.00;0.00;;;30.60;44.30;;;;;;5046648;28;20025;-75
2022/06/09 13:53:24;;;;;;;0.00;0.00;;;30.40;44.40;;;;;;5048147;28;20021;-75